createdAt,value
2017-11-26T00:00:47.657Z,34.25
2017-11-26T00:01:48.127Z,34.22
2017-11-26T00:02:48.600Z,34.22
2017-11-26T00:03:49.071Z,34.23
2017-11-26T00:04:49.592Z,34.21
2017-11-26T00:05:50.013Z,34.19
2017-11-26T00:06:50.485Z,34.18
2017-11-26T00:07:50.959Z,34.20
2017-11-26T00:08:51.427Z,34.26
2017-11-26T00:09:51.951Z,34.29
2017-11-26T00:10:52.374Z,34.32
2017-11-26T00:11:52.853Z,34.33
2017-11-26T00:12:53.316Z,34.36
2017-11-26T00:13:53.787Z,34.40
2017-11-26T00:14:54.314Z,34.45
2017-11-26T00:15:54.735Z,34.50
2017-11-26T00:16:55.203Z,34.50
2017-11-26T00:17:55.676Z,34.58
2017-11-26T00:18:56.149Z,34.60
2017-11-26T00:19:56.672Z,34.60
2017-11-26T00:20:57.091Z,34.60
2017-11-26T00:21:57.565Z,34.62
2017-11-26T00:22:58.038Z,34.65
2017-11-26T00:23:58.510Z,34.65
2017-11-26T00:24:59.029Z,34.67
2017-11-26T00:25:59.452Z,34.67
2017-11-26T00:26:59.923Z,34.72
2017-11-26T00:28:00.395Z,34.72
2017-11-26T00:29:00.867Z,34.72
2017-11-26T00:30:01.390Z,34.76
2017-11-26T00:31:01.814Z,34.74
2017-11-26T00:32:02.289Z,34.67
2017-11-26T00:33:02.754Z,34.54
2017-11-26T00:34:03.230Z,34.51
2017-11-26T00:35:03.750Z,34.51
2017-11-26T00:36:04.173Z,34.49
2017-11-26T00:37:04.642Z,34.50
2017-11-26T00:38:05.116Z,34.49
2017-11-26T00:39:05.587Z,34.45
2017-11-26T00:40:06.110Z,34.44
2017-11-26T00:41:06.530Z,34.43
2017-11-26T00:42:07.002Z,34.44
2017-11-26T00:43:07.474Z,34.45
2017-11-26T00:44:07.946Z,34.44
2017-11-26T00:45:08.475Z,34.43
2017-11-26T00:46:08.891Z,34.38
2017-11-26T00:47:09.363Z,34.38
2017-11-26T00:48:09.841Z,34.38
2017-11-26T00:49:10.304Z,34.41
2017-11-26T00:50:10.826Z,34.43
2017-11-26T00:51:11.247Z,34.53
2017-11-26T00:52:11.721Z,34.55
2017-11-26T00:53:12.191Z,34.54
2017-11-26T00:54:12.663Z,34.51
2017-11-26T00:55:13.186Z,34.51
2017-11-26T00:56:13.610Z,34.51
2017-11-26T00:57:14.077Z,34.54
2017-11-26T00:58:14.552Z,34.57
2017-11-26T00:59:15.022Z,34.57
2017-11-26T01:00:15.541Z,34.54
2017-11-26T01:01:15.965Z,34.55
2017-11-26T01:02:16.433Z,34.60
2017-11-26T01:03:16.905Z,34.61
2017-11-26T01:04:17.378Z,34.63
2017-11-26T01:05:17.901Z,34.67
2017-11-26T01:06:18.319Z,34.69
2017-11-26T01:07:18.793Z,34.74
2017-11-26T01:08:19.266Z,34.77
2017-11-26T01:09:19.734Z,34.80
2017-11-26T01:10:20.257Z,34.83
2017-11-26T01:11:20.676Z,34.88
2017-11-26T01:12:21.149Z,34.93
2017-11-26T01:13:21.624Z,34.97
2017-11-26T01:14:22.089Z,35.04
2017-11-26T01:15:22.615Z,35.06
2017-11-26T01:16:23.032Z,35.12
2017-11-26T01:17:23.502Z,35.13
2017-11-26T01:18:23.976Z,35.21
2017-11-26T01:19:24.447Z,35.20
2017-11-26T01:20:24.970Z,35.24
2017-11-26T01:21:25.387Z,35.27
2017-11-26T01:22:25.858Z,35.29
2017-11-26T01:23:26.330Z,35.29
2017-11-26T01:24:26.801Z,35.31
2017-11-26T01:25:27.325Z,35.33
2017-11-26T01:26:27.743Z,35.35
2017-11-26T01:27:28.217Z,35.37
2017-11-26T01:28:28.686Z,35.33
2017-11-26T01:29:29.158Z,35.34
2017-11-26T01:30:29.681Z,35.33
2017-11-26T01:31:30.099Z,35.33
2017-11-26T01:32:30.577Z,35.34
2017-11-26T01:33:31.043Z,35.33
2017-11-26T01:34:31.515Z,35.36
2017-11-26T01:35:32.035Z,35.33
2017-11-26T01:36:32.457Z,35.30
2017-11-26T01:37:32.929Z,35.30
2017-11-26T01:38:33.407Z,35.27
2017-11-26T01:39:33.874Z,35.31
2017-11-26T01:40:34.394Z,35.29
2017-11-26T01:41:34.820Z,35.28
2017-11-26T01:42:35.308Z,35.33
2017-11-26T01:43:35.759Z,35.37
2017-11-26T01:44:36.234Z,35.33
2017-11-26T01:45:36.752Z,35.29
2017-11-26T01:46:37.174Z,35.28
2017-11-26T01:47:37.642Z,35.28
2017-11-26T01:48:38.118Z,35.26
2017-11-26T01:49:38.593Z,35.27
2017-11-26T01:50:39.121Z,35.26
2017-11-26T01:51:39.533Z,35.24
2017-11-26T01:52:40.002Z,35.22
2017-11-26T01:53:40.475Z,35.19
2017-11-26T01:54:40.956Z,35.23
2017-11-26T01:55:41.469Z,35.24
2017-11-26T01:56:41.931Z,35.29
2017-11-26T01:57:42.360Z,35.30
2017-11-26T01:58:42.837Z,35.25
2017-11-26T01:59:43.304Z,35.32
2017-11-26T02:00:43.828Z,35.31
2017-11-26T02:01:44.251Z,35.28
2017-11-26T02:02:44.719Z,35.24
2017-11-26T02:03:45.193Z,35.25
2017-11-26T02:04:45.667Z,35.24
2017-11-26T02:05:46.186Z,35.22
2017-11-26T02:06:46.609Z,35.23
2017-11-26T02:07:47.079Z,35.23
2017-11-26T02:08:47.551Z,35.27
2017-11-26T02:09:48.022Z,35.25
2017-11-26T02:10:48.546Z,35.28
2017-11-26T02:11:48.964Z,35.30
2017-11-26T02:12:49.439Z,35.24
2017-11-26T02:13:49.906Z,35.28
2017-11-26T02:14:50.378Z,35.27
2017-11-26T02:15:50.901Z,35.27
2017-11-26T02:16:51.322Z,35.26
2017-11-26T02:17:51.796Z,35.26
2017-11-26T02:18:52.318Z,35.20
2017-11-26T02:19:52.740Z,35.24
2017-11-26T02:20:53.259Z,35.26
2017-11-26T02:21:53.679Z,35.27
2017-11-26T02:22:54.154Z,35.26
2017-11-26T02:23:54.624Z,35.25
2017-11-26T02:24:55.096Z,35.25
2017-11-26T02:25:55.618Z,35.25
2017-11-26T02:26:56.041Z,35.28
2017-11-26T02:27:56.511Z,35.28
2017-11-26T02:28:56.990Z,35.28
2017-11-26T02:29:57.454Z,35.22
2017-11-26T02:30:57.977Z,35.24
2017-11-26T02:31:58.399Z,35.26
2017-11-26T02:32:58.871Z,35.27
2017-11-26T02:33:59.341Z,35.25
2017-11-26T02:34:59.814Z,35.26
2017-11-26T02:36:00.332Z,35.30
2017-11-26T02:37:00.759Z,35.26
2017-11-26T02:38:01.228Z,35.27
2017-11-26T02:39:01.700Z,35.29
2017-11-26T02:40:02.173Z,35.30
2017-11-26T02:41:02.691Z,35.28
2017-11-26T02:42:03.112Z,35.31
2017-11-26T02:43:03.586Z,35.28
2017-11-26T02:44:04.056Z,35.27
2017-11-26T02:45:04.531Z,35.30
2017-11-26T02:46:05.056Z,35.26
2017-11-26T02:47:05.470Z,35.29
2017-11-26T02:48:05.942Z,35.28
2017-11-26T02:49:06.415Z,35.28
2017-11-26T02:50:06.884Z,35.25
2017-11-26T02:51:07.408Z,35.29
2017-11-26T02:52:07.831Z,35.26
2017-11-26T02:53:08.300Z,35.27
2017-11-26T02:54:08.772Z,35.27
2017-11-26T02:55:09.244Z,35.27
2017-11-26T02:56:09.770Z,35.28
2017-11-26T02:57:10.187Z,35.32
2017-11-26T02:58:10.662Z,35.35
2017-11-26T02:59:11.130Z,35.34
2017-11-26T03:00:11.599Z,35.32
2017-11-26T03:01:12.123Z,35.30
2017-11-26T03:02:12.545Z,35.33
2017-11-26T03:03:13.015Z,35.34
2017-11-26T03:04:13.485Z,35.35
2017-11-26T03:05:13.960Z,35.38
2017-11-26T03:06:14.478Z,35.41
2017-11-26T03:07:14.902Z,35.40
2017-11-26T03:08:15.375Z,35.40
2017-11-26T03:09:15.845Z,35.38
2017-11-26T03:10:16.315Z,35.42
2017-11-26T03:11:16.855Z,35.43
2017-11-26T03:12:17.256Z,35.42
2017-11-26T03:13:17.763Z,35.41
2017-11-26T03:14:18.204Z,35.41
2017-11-26T03:15:18.672Z,35.42
2017-11-26T03:16:19.192Z,35.40
2017-11-26T03:17:19.615Z,35.43
2017-11-26T03:18:20.083Z,35.44
2017-11-26T03:19:20.555Z,35.45
2017-11-26T03:20:21.028Z,35.45
2017-11-26T03:21:21.550Z,35.44
2017-11-26T03:22:21.979Z,35.44
2017-11-26T03:23:22.454Z,35.46
2017-11-26T03:24:22.917Z,35.50
2017-11-26T03:25:23.386Z,35.46
2017-11-26T03:26:23.905Z,35.49
2017-11-26T03:27:24.329Z,35.51
2017-11-26T03:28:24.798Z,35.53
2017-11-26T03:29:25.277Z,35.57
2017-11-26T03:30:25.743Z,35.58
2017-11-26T03:31:26.262Z,35.61
2017-11-26T03:32:26.683Z,35.59
2017-11-26T03:33:27.151Z,35.54
2017-11-26T03:34:27.621Z,35.53
2017-11-26T03:35:28.100Z,35.56
2017-11-26T03:36:28.614Z,35.54
2017-11-26T03:37:29.036Z,35.59
2017-11-26T03:38:29.507Z,35.58
2017-11-26T03:39:29.977Z,35.58
2017-11-26T03:40:30.449Z,35.59
2017-11-26T03:41:31.000Z,35.58
2017-11-26T03:42:31.391Z,35.56
2017-11-26T03:43:31.863Z,35.58
2017-11-26T03:44:32.335Z,35.58
2017-11-26T03:45:32.804Z,35.56
2017-11-26T03:46:33.325Z,35.54
2017-11-26T03:47:33.782Z,35.58
2017-11-26T03:48:34.223Z,35.58
2017-11-26T03:49:34.688Z,35.62
2017-11-26T03:50:35.163Z,35.62
2017-11-26T03:51:35.681Z,35.65
2017-11-26T03:52:36.106Z,35.64
2017-11-26T03:53:36.577Z,35.60
2017-11-26T03:54:37.046Z,35.62
2017-11-26T03:55:37.516Z,35.65
2017-11-26T03:56:38.043Z,35.68
2017-11-26T03:57:38.460Z,35.77
2017-11-26T03:58:38.933Z,35.75
2017-11-26T03:59:39.404Z,35.75
2017-11-26T04:00:39.874Z,35.82
2017-11-26T04:01:40.396Z,35.80
2017-11-26T04:02:40.815Z,35.79
2017-11-26T04:03:41.289Z,35.80
2017-11-26T04:04:41.797Z,35.81
2017-11-26T04:05:42.230Z,35.85
2017-11-26T04:06:42.751Z,35.83
2017-11-26T04:07:43.171Z,35.81
2017-11-26T04:08:43.643Z,35.84
2017-11-26T04:09:44.117Z,35.86
2017-11-26T04:10:44.587Z,35.89
2017-11-26T04:11:45.109Z,35.91
2017-11-26T04:12:45.526Z,35.90
2017-11-26T04:13:46.000Z,35.94
2017-11-26T04:14:46.470Z,35.98
2017-11-26T04:15:46.941Z,35.98
2017-11-26T04:16:47.462Z,35.97
2017-11-26T04:17:47.880Z,36.00
2017-11-26T04:18:48.349Z,36.00
2017-11-26T04:19:48.822Z,35.98
2017-11-26T04:20:49.292Z,36.04
2017-11-26T04:21:49.817Z,36.05
2017-11-26T04:22:50.232Z,36.04
2017-11-26T04:23:50.703Z,36.03
2017-11-26T04:24:51.173Z,36.04
2017-11-26T04:25:51.645Z,36.04
2017-11-26T04:26:52.166Z,36.08
2017-11-26T04:27:52.587Z,36.14
2017-11-26T04:28:53.057Z,36.13
2017-11-26T04:29:53.527Z,36.25
2017-11-26T04:30:53.993Z,36.29
2017-11-26T04:31:54.514Z,36.26
2017-11-26T04:32:54.933Z,36.29
2017-11-26T04:33:55.431Z,36.25
2017-11-26T04:34:55.873Z,36.18
2017-11-26T04:35:56.348Z,36.17
2017-11-26T04:36:56.868Z,36.22
2017-11-26T04:37:57.287Z,36.19
2017-11-26T04:38:57.755Z,36.23
2017-11-26T04:39:58.226Z,36.27
2017-11-26T04:40:58.701Z,36.22
2017-11-26T04:41:59.219Z,36.25
2017-11-26T04:42:59.636Z,36.17
2017-11-26T04:44:00.107Z,36.19
2017-11-26T04:45:00.577Z,36.26
2017-11-26T04:46:01.045Z,36.23
2017-11-26T04:47:01.567Z,36.18
2017-11-26T04:48:01.987Z,36.21
2017-11-26T04:49:02.455Z,36.24
2017-11-26T04:50:02.934Z,36.21
2017-11-26T04:51:03.396Z,36.24
2017-11-26T04:52:03.917Z,36.23
2017-11-26T04:53:04.343Z,36.27
2017-11-26T04:54:04.803Z,36.36
2017-11-26T04:55:05.271Z,36.35
2017-11-26T04:56:05.743Z,36.30
2017-11-26T04:57:06.262Z,36.28
2017-11-26T04:58:06.681Z,36.27
2017-11-26T04:59:07.151Z,36.31
2017-11-26T05:00:07.620Z,36.30
2017-11-26T05:01:08.089Z,36.25
2017-11-26T05:02:08.612Z,36.24
2017-11-26T05:03:09.027Z,36.30
2017-11-26T05:04:09.497Z,36.31
2017-11-26T05:05:09.968Z,36.34
2017-11-26T05:06:10.438Z,36.26
2017-11-26T05:07:10.959Z,36.19
2017-11-26T05:08:11.374Z,36.18
2017-11-26T05:09:11.843Z,36.25
2017-11-26T05:10:12.313Z,36.26
2017-11-26T05:11:12.782Z,36.27
2017-11-26T05:12:13.302Z,36.28
2017-11-26T05:13:13.724Z,36.25
2017-11-26T05:14:14.193Z,36.26
2017-11-26T05:15:14.660Z,36.26
2017-11-26T05:16:15.129Z,36.26
2017-11-26T05:17:15.650Z,36.24
2017-11-26T05:18:16.072Z,36.21
2017-11-26T05:19:16.537Z,36.16
2017-11-26T05:20:17.008Z,36.13
2017-11-26T05:21:17.480Z,36.13
2017-11-26T05:22:18.000Z,36.08
2017-11-26T05:23:18.421Z,36.06
2017-11-26T05:24:18.887Z,36.07
2017-11-26T05:25:19.359Z,36.09
2017-11-26T05:26:19.839Z,36.18
2017-11-26T05:27:20.349Z,36.15
2017-11-26T05:28:20.768Z,36.15
2017-11-26T05:29:21.240Z,36.22
2017-11-26T05:30:21.708Z,36.15
2017-11-26T05:31:22.179Z,36.09
2017-11-26T05:32:22.699Z,36.07
2017-11-26T05:33:23.116Z,36.10
2017-11-26T05:34:23.591Z,36.12
2017-11-26T05:35:24.056Z,36.09
2017-11-26T05:36:24.527Z,36.10
2017-11-26T05:37:25.049Z,36.10
2017-11-26T05:38:25.469Z,36.09
2017-11-26T05:39:25.937Z,36.15
2017-11-26T05:40:26.410Z,36.09
2017-11-26T05:41:26.878Z,36.12
2017-11-26T05:42:27.400Z,36.05
2017-11-26T05:43:27.820Z,36.06
2017-11-26T05:44:28.287Z,36.11
2017-11-26T05:45:28.760Z,36.06
2017-11-26T05:46:29.229Z,36.09
2017-11-26T05:47:29.755Z,36.04
2017-11-26T05:48:30.168Z,36.11
2017-11-26T05:49:30.640Z,36.06
2017-11-26T05:50:31.109Z,36.12
2017-11-26T05:51:31.579Z,36.05
2017-11-26T05:52:32.107Z,36.03
2017-11-26T05:53:32.522Z,36.01
2017-11-26T05:54:32.995Z,36.02
2017-11-26T05:55:33.463Z,36.12
2017-11-26T05:56:33.932Z,36.08
2017-11-26T05:57:34.455Z,36.11
2017-11-26T05:58:34.873Z,36.07
2017-11-26T05:59:35.346Z,36.07
2017-11-26T06:00:35.816Z,36.03
2017-11-26T06:01:36.289Z,36.02
2017-11-26T06:02:36.810Z,36.06
2017-11-26T06:03:37.229Z,36.06
2017-11-26T06:04:37.702Z,36.11
2017-11-26T06:05:38.177Z,36.12
2017-11-26T06:06:38.643Z,36.12
2017-11-26T06:07:39.165Z,36.19
2017-11-26T06:08:39.584Z,36.14
2017-11-26T06:09:40.057Z,36.14
2017-11-26T06:10:40.526Z,36.13
2017-11-26T06:11:41.000Z,36.13
2017-11-26T06:12:41.522Z,36.08
2017-11-26T06:13:41.942Z,36.06
2017-11-26T06:14:42.411Z,36.07
2017-11-26T06:15:42.884Z,36.04
2017-11-26T06:16:43.354Z,36.02
2017-11-26T06:17:43.880Z,36.02
2017-11-26T06:18:44.296Z,36.04
2017-11-26T06:19:44.767Z,36.09
2017-11-26T06:20:45.245Z,36.11
2017-11-26T06:21:45.709Z,36.07
2017-11-26T06:22:46.233Z,36.04
2017-11-26T06:23:46.650Z,36.06
2017-11-26T06:24:47.123Z,36.15
2017-11-26T06:25:47.603Z,36.14
2017-11-26T06:26:48.066Z,36.11
2017-11-26T06:27:48.586Z,36.11
2017-11-26T06:28:49.008Z,36.10
2017-11-26T06:29:49.504Z,36.13
2017-11-26T06:30:49.951Z,36.20
2017-11-26T06:31:50.421Z,36.18
2017-11-26T06:32:50.943Z,36.21
2017-11-26T06:33:51.361Z,36.27
2017-11-26T06:34:51.834Z,36.33
2017-11-26T06:35:52.302Z,36.33
2017-11-26T06:36:52.774Z,36.33
2017-11-26T06:37:53.295Z,36.41
2017-11-26T06:38:53.716Z,36.42
2017-11-26T06:39:54.188Z,36.39
2017-11-26T06:40:54.659Z,36.38
2017-11-26T06:41:55.127Z,36.47
2017-11-26T06:42:55.650Z,36.61
2017-11-26T06:43:56.071Z,36.60
2017-11-26T06:44:56.540Z,36.60
2017-11-26T06:45:57.013Z,36.53
2017-11-26T06:46:57.479Z,36.50
2017-11-26T06:47:58.005Z,36.49
2017-11-26T06:48:58.428Z,36.46
2017-11-26T06:49:58.895Z,36.51
2017-11-26T06:50:59.365Z,36.50
2017-11-26T06:51:59.835Z,36.51
2017-11-26T06:53:00.358Z,36.53
2017-11-26T06:54:00.776Z,36.52
2017-11-26T06:55:01.248Z,36.46
2017-11-26T06:56:01.720Z,36.43
2017-11-26T06:57:02.192Z,36.43
2017-11-26T06:58:02.709Z,36.44
2017-11-26T06:59:03.132Z,36.56
2017-11-26T07:00:03.603Z,36.68
2017-11-26T07:01:04.073Z,36.55
2017-11-26T07:02:04.546Z,36.12
2017-11-26T07:03:05.067Z,35.74
2017-11-26T07:04:05.487Z,35.31
2017-11-26T07:05:05.959Z,34.99
2017-11-26T07:06:06.431Z,34.62
2017-11-26T07:07:06.902Z,34.28
2017-11-26T07:08:07.425Z,33.98
2017-11-26T07:09:07.844Z,33.74
2017-11-26T07:10:08.313Z,33.56
2017-11-26T07:11:08.784Z,33.28
2017-11-26T07:12:09.254Z,32.85
2017-11-26T07:13:09.778Z,32.53
2017-11-26T07:14:10.201Z,32.12
2017-11-26T07:15:10.670Z,31.77
2017-11-26T07:16:11.139Z,31.57
2017-11-26T07:17:11.609Z,31.41
2017-11-26T07:18:12.128Z,31.11
2017-11-26T07:19:12.553Z,31.01
2017-11-26T07:20:13.017Z,30.77
2017-11-26T07:21:13.488Z,30.67
2017-11-26T07:22:13.960Z,30.59
2017-11-26T07:23:14.482Z,30.53
2017-11-26T07:24:14.897Z,30.51
2017-11-26T07:25:15.369Z,30.43
2017-11-26T07:26:15.839Z,30.41
2017-11-26T07:27:16.305Z,30.39
2017-11-26T07:28:16.826Z,30.31
2017-11-26T07:29:17.246Z,30.23
2017-11-26T07:30:17.714Z,30.16
2017-11-26T07:31:18.181Z,30.20
2017-11-26T07:32:18.649Z,30.09
2017-11-26T07:33:19.168Z,30.10
2017-11-26T07:34:19.590Z,30.10
2017-11-26T07:35:20.054Z,30.16
2017-11-26T07:36:20.526Z,30.16
2017-11-26T07:37:20.990Z,30.06
2017-11-26T07:38:21.508Z,30.06
2017-11-26T07:39:21.930Z,30.14
2017-11-26T07:40:22.397Z,30.06
2017-11-26T07:41:22.861Z,30.14
2017-11-26T07:42:23.332Z,30.12
2017-11-26T07:43:23.851Z,30.16
2017-11-26T07:44:24.265Z,30.20
2017-11-26T07:45:24.732Z,30.17
2017-11-26T07:46:25.219Z,30.07
2017-11-26T07:47:25.670Z,30.02
2017-11-26T07:48:26.188Z,30.01
2017-11-26T07:49:26.605Z,29.94
2017-11-26T07:50:27.072Z,30.01
2017-11-26T07:51:27.541Z,29.90
2017-11-26T07:52:28.005Z,29.97
2017-11-26T07:53:28.525Z,30.04
2017-11-26T07:54:28.940Z,30.05
2017-11-26T07:55:29.420Z,30.00
2017-11-26T07:56:29.874Z,30.00
2017-11-26T07:57:30.347Z,29.98
2017-11-26T07:58:30.863Z,29.89
2017-11-26T07:59:31.290Z,29.81
2017-11-26T08:00:31.750Z,29.85
2017-11-26T08:01:32.217Z,29.85
2017-11-26T08:02:32.687Z,29.81
2017-11-26T08:03:33.205Z,29.78
2017-11-26T08:04:33.619Z,29.60
2017-11-26T08:05:34.088Z,29.55
2017-11-26T08:06:34.554Z,29.55
2017-11-26T08:07:35.027Z,29.57
2017-11-26T08:08:35.542Z,29.56
2017-11-26T08:09:35.959Z,29.46
2017-11-26T08:10:36.429Z,29.44
2017-11-26T08:11:36.892Z,29.42
2017-11-26T08:12:37.361Z,29.30
2017-11-26T08:13:37.880Z,29.34
2017-11-26T08:14:38.298Z,29.29
2017-11-26T08:15:38.781Z,29.36
2017-11-26T08:16:39.229Z,29.34
2017-11-26T08:17:39.709Z,29.51
2017-11-26T08:18:40.216Z,29.52
2017-11-26T08:19:40.642Z,29.49
2017-11-26T08:20:41.100Z,29.49
2017-11-26T08:21:41.570Z,29.53
2017-11-26T08:22:42.038Z,29.50
2017-11-26T08:23:42.556Z,29.54
2017-11-26T08:24:42.970Z,29.70
2017-11-26T08:25:43.440Z,29.72
2017-11-26T08:26:43.908Z,29.71
2017-11-26T08:27:44.375Z,29.74
2017-11-26T08:28:44.894Z,29.68
2017-11-26T08:29:45.310Z,29.63
2017-11-26T08:30:45.779Z,29.62
2017-11-26T08:31:46.242Z,29.59
2017-11-26T08:32:46.711Z,29.57
2017-11-26T08:33:47.228Z,29.55
2017-11-26T08:34:47.644Z,29.58
2017-11-26T08:35:48.111Z,29.63
2017-11-26T08:36:48.577Z,29.67
2017-11-26T08:37:49.047Z,29.74
2017-11-26T08:38:49.565Z,29.77
2017-11-26T08:39:49.980Z,29.81
2017-11-26T08:40:50.450Z,29.90
2017-11-26T08:41:50.914Z,29.97
2017-11-26T08:42:51.381Z,29.92
2017-11-26T08:43:51.901Z,29.91
2017-11-26T08:44:52.315Z,29.97
2017-11-26T08:45:52.789Z,30.03
2017-11-26T08:46:53.252Z,29.99
2017-11-26T08:47:53.719Z,29.98
2017-11-26T08:48:54.236Z,29.92
2017-11-26T08:49:54.652Z,29.90
2017-11-26T08:50:55.121Z,29.96
2017-11-26T08:51:55.587Z,29.98
2017-11-26T08:52:56.055Z,30.11
2017-11-26T08:53:56.571Z,30.18
2017-11-26T08:54:56.992Z,30.21
2017-11-26T08:55:57.457Z,30.14
2017-11-26T08:56:57.924Z,30.21
2017-11-26T08:57:58.394Z,30.18
2017-11-26T08:58:58.909Z,30.18
2017-11-26T08:59:59.329Z,30.17
2017-11-26T09:00:59.796Z,30.28
2017-11-26T09:02:00.261Z,30.46
2017-11-26T09:03:00.738Z,30.45
2017-11-26T09:04:01.250Z,30.43
2017-11-26T09:05:01.663Z,30.41
2017-11-26T09:06:02.133Z,30.36
2017-11-26T09:07:02.600Z,30.45
2017-11-26T09:08:03.076Z,30.40
2017-11-26T09:09:03.582Z,30.40
2017-11-26T09:10:04.003Z,30.32
2017-11-26T09:11:04.469Z,30.19
2017-11-26T09:12:04.937Z,30.21
2017-11-26T09:13:05.405Z,30.29
2017-11-26T09:14:05.923Z,30.23
2017-11-26T09:15:06.348Z,30.15
2017-11-26T09:16:06.810Z,29.99
2017-11-26T09:17:07.273Z,29.95
2017-11-26T09:18:07.743Z,29.98
2017-11-26T09:19:08.262Z,29.92
2017-11-26T09:20:08.683Z,29.91
2017-11-26T09:21:09.142Z,29.94
2017-11-26T09:22:09.617Z,29.88
2017-11-26T09:23:10.078Z,29.78
2017-11-26T09:24:10.596Z,29.74
2017-11-26T09:25:11.013Z,29.68
2017-11-26T09:26:11.479Z,29.65
2017-11-26T09:27:11.946Z,29.59
2017-11-26T09:28:12.411Z,29.57
2017-11-26T09:29:12.930Z,29.49
2017-11-26T09:30:13.347Z,29.43
2017-11-26T09:31:13.810Z,29.44
2017-11-26T09:32:14.280Z,29.41
2017-11-26T09:33:14.746Z,29.37
2017-11-26T09:34:15.264Z,29.27
2017-11-26T09:35:15.678Z,29.29
2017-11-26T09:36:16.147Z,29.23
2017-11-26T09:37:16.613Z,29.23
2017-11-26T09:38:17.093Z,29.26
2017-11-26T09:39:17.596Z,29.26
2017-11-26T09:40:18.013Z,29.33
2017-11-26T09:41:18.501Z,29.38
2017-11-26T09:42:18.948Z,29.53
2017-11-26T09:43:19.417Z,29.59
2017-11-26T09:44:19.936Z,29.69
2017-11-26T09:45:20.351Z,29.85
2017-11-26T09:46:20.819Z,29.82
2017-11-26T09:47:21.285Z,29.78
2017-11-26T09:48:21.757Z,29.90
2017-11-26T09:49:22.273Z,29.87
2017-11-26T09:50:22.709Z,29.98
2017-11-26T09:51:23.159Z,30.05
2017-11-26T09:52:23.627Z,29.95
2017-11-26T09:53:24.094Z,29.91
2017-11-26T09:54:24.611Z,29.96
2017-11-26T09:55:25.033Z,29.95
2017-11-26T09:56:25.496Z,30.11
2017-11-26T09:57:25.965Z,30.10
2017-11-26T09:58:26.448Z,30.12
2017-11-26T09:59:26.953Z,30.15
2017-11-26T10:00:27.369Z,30.22
2017-11-26T10:01:27.834Z,30.05
2017-11-26T10:02:28.306Z,29.90
2017-11-26T10:03:28.771Z,29.93
2017-11-26T10:04:29.291Z,29.92
2017-11-26T10:05:29.706Z,29.87
2017-11-26T10:06:30.173Z,29.81
2017-11-26T10:07:30.645Z,29.83
2017-11-26T10:08:31.112Z,29.82
2017-11-26T10:09:31.630Z,29.96
2017-11-26T10:10:32.047Z,29.93
2017-11-26T10:11:32.512Z,29.93
2017-11-26T10:12:32.983Z,29.96
2017-11-26T10:13:33.447Z,30.00
2017-11-26T10:14:33.969Z,30.11
2017-11-26T10:15:34.386Z,30.16
2017-11-26T10:16:34.853Z,30.27
2017-11-26T10:17:35.320Z,30.36
2017-11-26T10:18:35.784Z,30.18
2017-11-26T10:19:36.306Z,30.12
2017-11-26T10:20:36.725Z,30.08
2017-11-26T10:21:37.190Z,30.22
2017-11-26T10:22:37.660Z,30.17
2017-11-26T10:23:38.124Z,30.18
2017-11-26T10:24:38.644Z,30.20
2017-11-26T10:25:39.061Z,30.38
2017-11-26T10:26:39.536Z,30.25
2017-11-26T10:27:39.994Z,30.15
2017-11-26T10:28:40.461Z,30.07
2017-11-26T10:29:41.033Z,30.08
2017-11-26T10:30:41.397Z,30.19
2017-11-26T10:31:41.866Z,30.24
2017-11-26T10:32:42.332Z,30.24
2017-11-26T10:33:42.801Z,30.32
2017-11-26T10:34:43.622Z,30.34
2017-11-26T10:35:43.735Z,30.37
2017-11-26T10:36:44.205Z,30.42
2017-11-26T10:37:44.667Z,30.44
2017-11-26T10:38:45.138Z,30.33
2017-11-26T10:39:45.657Z,30.25
2017-11-26T10:40:46.072Z,30.27
2017-11-26T10:41:46.537Z,30.21
2017-11-26T10:42:47.007Z,30.07
2017-11-26T10:43:47.474Z,29.98
2017-11-26T10:44:47.992Z,29.86
2017-11-26T10:45:48.409Z,29.83
2017-11-26T10:46:48.877Z,29.89
2017-11-26T10:47:49.341Z,29.97
2017-11-26T10:48:49.812Z,29.95
2017-11-26T10:49:50.328Z,29.99
2017-11-26T10:50:50.744Z,29.85
2017-11-26T10:51:51.211Z,29.92
2017-11-26T10:52:51.680Z,29.97
2017-11-26T10:53:52.145Z,29.96
2017-11-26T10:54:52.666Z,29.87
2017-11-26T10:55:53.081Z,30.04
2017-11-26T10:56:53.552Z,30.13
2017-11-26T10:57:54.020Z,30.18
2017-11-26T10:58:54.485Z,30.18
2017-11-26T10:59:55.256Z,30.21
2017-11-26T11:00:55.423Z,30.25
2017-11-26T11:01:55.890Z,30.30
2017-11-26T11:02:56.357Z,30.29
2017-11-26T11:03:56.823Z,30.07
2017-11-26T11:04:57.341Z,30.06
2017-11-26T11:05:57.760Z,30.02
2017-11-26T11:06:58.225Z,29.91
2017-11-26T11:07:58.692Z,29.88
2017-11-26T11:08:59.162Z,29.81
2017-11-26T11:09:59.676Z,29.78
2017-11-26T11:11:00.094Z,29.82
2017-11-26T11:12:00.562Z,29.89
2017-11-26T11:13:01.029Z,30.10
2017-11-26T11:14:01.493Z,30.05
2017-11-26T11:15:02.012Z,30.02
2017-11-26T11:16:02.427Z,29.90
2017-11-26T11:17:02.894Z,29.79
2017-11-26T11:18:03.361Z,29.65
2017-11-26T11:19:03.827Z,29.71
2017-11-26T11:20:04.345Z,29.82
2017-11-26T11:21:04.763Z,29.83
2017-11-26T11:22:05.227Z,29.95
2017-11-26T11:23:05.696Z,30.01
2017-11-26T11:24:06.163Z,30.09
2017-11-26T11:25:06.932Z,30.05
2017-11-26T11:26:07.094Z,30.04
2017-11-26T11:27:07.560Z,29.95
2017-11-26T11:28:08.027Z,29.93
2017-11-26T11:29:08.493Z,30.01
2017-11-26T11:30:09.013Z,30.02
2017-11-26T11:31:09.429Z,30.06
2017-11-26T11:32:09.896Z,30.05
2017-11-26T11:33:10.363Z,30.01
2017-11-26T11:34:10.826Z,30.02
2017-11-26T11:35:11.345Z,30.05
2017-11-26T11:36:11.761Z,30.10
2017-11-26T11:37:12.236Z,30.02
2017-11-26T11:38:12.700Z,30.05
2017-11-26T11:39:13.163Z,30.07
2017-11-26T11:40:13.681Z,30.13
2017-11-26T11:41:14.095Z,30.11
2017-11-26T11:42:14.561Z,30.13
2017-11-26T11:43:15.031Z,30.13
2017-11-26T11:44:15.498Z,30.11
2017-11-26T11:45:16.015Z,30.14
2017-11-26T11:46:16.432Z,29.98
2017-11-26T11:47:16.899Z,30.07
2017-11-26T11:48:17.367Z,29.85
2017-11-26T11:49:17.831Z,29.86
2017-11-26T11:50:18.352Z,29.75
2017-11-26T11:51:18.769Z,29.77
2017-11-26T11:52:19.237Z,29.68
2017-11-26T11:53:19.704Z,29.66
2017-11-26T11:54:20.169Z,29.57
2017-11-26T11:55:20.686Z,29.59
2017-11-26T11:56:21.104Z,29.60
2017-11-26T11:57:21.571Z,29.64
2017-11-26T11:58:22.038Z,29.65
2017-11-26T11:59:22.523Z,29.62
2017-11-26T12:00:23.028Z,29.68
2017-11-26T12:01:23.442Z,29.66
2017-11-26T12:02:23.910Z,29.55
2017-11-26T12:03:24.377Z,29.58
2017-11-26T12:04:24.846Z,29.54
2017-11-26T12:05:25.363Z,29.54
2017-11-26T12:06:25.781Z,29.53
2017-11-26T12:07:26.248Z,29.39
2017-11-26T12:08:26.715Z,29.36
2017-11-26T12:09:27.182Z,29.46
2017-11-26T12:10:27.697Z,29.46
2017-11-26T12:11:28.118Z,29.51
2017-11-26T12:12:28.583Z,29.48
2017-11-26T12:13:29.053Z,29.42
2017-11-26T12:14:29.517Z,29.40
2017-11-26T12:15:30.035Z,29.45
2017-11-26T12:16:30.455Z,29.43
2017-11-26T12:17:30.928Z,29.40
2017-11-26T12:18:31.386Z,29.38
2017-11-26T12:19:31.857Z,29.46
2017-11-26T12:20:32.376Z,29.33
2017-11-26T12:21:32.792Z,29.47
2017-11-26T12:22:33.261Z,29.52
2017-11-26T12:23:33.730Z,29.45
2017-11-26T12:24:34.191Z,29.33
2017-11-26T12:25:34.711Z,29.34
2017-11-26T12:26:35.133Z,29.32
2017-11-26T12:27:35.593Z,29.17
2017-11-26T12:28:36.057Z,29.17
2017-11-26T12:29:36.524Z,29.25
2017-11-26T12:30:37.042Z,29.20
2017-11-26T12:31:37.457Z,29.25
2017-11-26T12:32:37.926Z,29.20
2017-11-26T12:33:38.391Z,29.15
2017-11-26T12:34:38.855Z,29.05
2017-11-26T12:35:39.371Z,29.03
2017-11-26T12:36:39.796Z,29.09
2017-11-26T12:37:40.253Z,29.03
2017-11-26T12:38:40.720Z,29.04
2017-11-26T12:39:41.184Z,29.13
2017-11-26T12:40:41.704Z,29.06
2017-11-26T12:41:42.116Z,29.09
2017-11-26T12:42:42.583Z,29.03
2017-11-26T12:43:43.050Z,28.91
2017-11-26T12:44:43.516Z,28.90
2017-11-26T12:45:44.034Z,28.93
2017-11-26T12:46:44.453Z,28.88
2017-11-26T12:47:44.914Z,28.85
2017-11-26T12:48:45.378Z,28.98
2017-11-26T12:49:45.847Z,29.10
2017-11-26T12:50:46.365Z,29.08
2017-11-26T12:51:46.776Z,29.04
2017-11-26T12:52:47.243Z,28.97
2017-11-26T12:53:47.712Z,29.00
2017-11-26T12:54:48.179Z,28.92
2017-11-26T12:55:48.692Z,28.94
2017-11-26T12:56:49.108Z,28.95
2017-11-26T12:57:49.575Z,29.06
2017-11-26T12:58:50.040Z,28.98